sensor_id;sensor_type;location;lat;lon;timestamp;pressure;altitude;pressure_sealevel;temperature;humidity
32320;BME280;19080;51.750;5.888;2023-08-06T00:00:53;100202.66;;;16.08;100.00
32320;BME280;19080;51.750;5.888;2023-08-06T00:03:20;100132.09;;;15.61;100.00
32320;BME280;19080;51.750;5.888;2023-08-06T00:05:46;100207.97;;;16.11;100.00
32320;BME280;19080;51.750;5.888;2023-08-06T00:08:13;100203.59;;;16.06;100.00
32320;BME280;19080;51.750;5.888;2023-08-06T00:10:40;100132.91;;;15.67;100.00
32320;BME280;19080;51.750;5.888;2023-08-06T00:13:08;100206.16;;;16.13;100.00
32320;BME280;19080;51.750;5.888;2023-08-06T00:15:34;100120.44;;;15.66;100.00
32320;BME280;19080;51.750;5.888;2023-08-06T00:18:01;100186.56;;;16.11;100.00
32320;BME280;19080;51.750;5.888;2023-08-06T00:20:28;100202.47;;;16.19;100.00
32320;BME280;19080;51.750;5.888;2023-08-06T00:22:54;100191.78;;;16.17;100.00
32320;BME280;19080;51.750;5.888;2023-08-06T00:25:21;100186.44;;;16.17;100.00
32320;BME280;19080;51.750;5.888;2023-08-06T00:27:47;100173.28;;;16.05;100.00
32320;BME280;19080;51.750;5.888;2023-08-06T00:30:14;100115.91;;;15.71;100.00
32320;BME280;19080;51.750;5.888;2023-08-06T00:32:41;100174.94;;;16.12;100.00
32320;BME280;19080;51.750;5.888;2023-08-06T00:35:07;100159.00;;;16.05;100.00
32320;BME280;19080;51.750;5.888;2023-08-06T00:37:34;100177.59;;;16.12;100.00
32320;BME280;19080;51.750;5.888;2023-08-06T00:40:01;100129.91;;;15.85;100.00
32320;BME280;19080;51.750;5.888;2023-08-06T00:42:27;100172.28;;;16.11;100.00
32320;BME280;19080;51.750;5.888;2023-08-06T00:44:54;100175.69;;;16.20;100.00
32320;BME280;19080;51.750;5.888;2023-08-06T00:47:20;100154.53;;;16.05;100.00
32320;BME280;19080;51.750;5.888;2023-08-06T00:49:47;100175.72;;;16.17;100.00
32320;BME280;19080;51.750;5.888;2023-08-06T00:52:14;100167.81;;;16.11;100.00
32320;BME280;19080;51.750;5.888;2023-08-06T00:54:41;100183.72;;;16.20;100.00
32320;BME280;19080;51.750;5.888;2023-08-06T00:57:09;100162.47;;;16.11;100.00
32320;BME280;19080;51.750;5.888;2023-08-06T00:59:35;100189.03;;;16.22;100.00
32320;BME280;19080;51.750;5.888;2023-08-06T01:02:03;100106.84;;;15.78;100.00
32320;BME280;19080;51.750;5.888;2023-08-06T01:04:30;100180.28;;;16.12;100.00
32320;BME280;19080;51.750;5.888;2023-08-06T01:07:14;100154.53;;;16.05;100.00
32320;BME280;19080;51.750;5.888;2023-08-06T01:09:52;100137.00;;;15.89;100.00
32320;BME280;19080;51.750;5.888;2023-08-06T01:12:45;100180.25;;;16.14;100.00
32320;BME280;19080;51.750;5.888;2023-08-06T01:15:22;100182.97;;;16.12;100.00
32320;BME280;19080;51.750;5.888;2023-08-06T01:17:50;100174.03;;;16.13;100.00
32320;BME280;19080;51.750;5.888;2023-08-06T01:20:16;100149.34;;;15.96;100.00
32320;BME280;19080;51.750;5.888;2023-08-06T01:22:43;100171.38;;;16.12;100.00
32320;BME280;19080;51.750;5.888;2023-08-06T01:25:10;100171.34;;;16.13;100.00
32320;BME280;19080;51.750;5.888;2023-08-06T01:27:49;100166.00;;;16.13;100.00
32320;BME280;19080;51.750;5.888;2023-08-06T01:32:46;100080.25;;;15.69;100.00
32320;BME280;19080;51.750;5.888;2023-08-06T01:35:16;100096.22;;;15.75;100.00
32320;BME280;19080;51.750;5.888;2023-08-06T01:37:44;100170.50;;;16.11;100.00
32320;BME280;19080;51.750;5.888;2023-08-06T01:40:11;100174.06;;;16.10;100.00
32320;BME280;19080;51.750;5.888;2023-08-06T01:42:39;100068.97;;;15.51;100.00
32320;BME280;19080;51.750;5.888;2023-08-06T01:45:07;100168.78;;;16.07;100.00
32320;BME280;19080;51.750;5.888;2023-08-06T01:47:35;100168.81;;;16.06;100.00
32320;BME280;19080;51.750;5.888;2023-08-06T01:50:02;100163.44;;;16.07;100.00
32320;BME280;19080;51.750;5.888;2023-08-06T01:52:29;100083.13;;;15.59;100.00
32320;BME280;19080;51.750;5.888;2023-08-06T01:54:56;100148.38;;;16.00;100.00
32320;BME280;19080;51.750;5.888;2023-08-06T01:57:23;100154.53;;;16.05;100.00
32320;BME280;19080;51.750;5.888;2023-08-06T01:59:49;100148.34;;;16.02;100.00
32320;BME280;19080;51.750;5.888;2023-08-06T02:02:16;100156.31;;;16.06;100.00
32320;BME280;19080;51.750;5.888;2023-08-06T02:04:43;100170.50;;;16.11;100.00
32320;BME280;19080;51.750;5.888;2023-08-06T02:07:11;100163.44;;;16.07;100.00
32320;BME280;19080;51.750;5.888;2023-08-06T02:09:38;100143.06;;;15.99;100.00
32320;BME280;19080;51.750;5.888;2023-08-06T02:12:05;100176.78;;;16.09;100.00
32320;BME280;19080;51.750;5.888;2023-08-06T02:14:32;100159.00;;;16.05;100.00
32320;BME280;19080;51.750;5.888;2023-08-06T02:16:59;100113.09;;;15.78;100.00
32320;BME280;19080;51.750;5.888;2023-08-06T02:19:25;100139.66;;;15.89;100.00
32320;BME280;19080;51.750;5.888;2023-08-06T02:21:52;100164.38;;;16.03;100.00
32320;BME280;19080;51.750;5.888;2023-08-06T02:24:21;100162.59;;;16.04;100.00
32320;BME280;19080;51.750;5.888;2023-08-06T02:26:47;100170.66;;;16.02;100.00
32320;BME280;19080;51.750;5.888;2023-08-06T02:29:17;100147.59;;;15.95;100.00
32320;BME280;19080;51.750;5.888;2023-08-06T02:31:44;100127.25;;;15.85;100.00
32320;BME280;19080;51.750;5.888;2023-08-06T02:34:11;100149.34;;;15.96;100.00
32320;BME280;19080;51.750;5.888;2023-08-06T02:36:37;100088.50;;;15.56;100.00
32320;BME280;19080;51.750;5.888;2023-08-06T02:39:05;100139.69;;;15.87;100.00
32320;BME280;19080;51.750;5.888;2023-08-06T02:41:32;100106.13;;;15.68;100.00
32320;BME280;19080;51.750;5.888;2023-08-06T02:43:59;100089.25;;;15.65;100.00
32320;BME280;19080;51.750;5.888;2023-08-06T02:46:25;100131.78;;;15.81;100.00
32320;BME280;19080;51.750;5.888;2023-08-06T02:48:52;100143.22;;;15.89;100.00
32320;BME280;19080;51.750;5.888;2023-08-06T02:51:18;100059.34;;;15.41;100.00
32320;BME280;19080;51.750;5.888;2023-08-06T02:53:47;100149.41;;;15.93;100.00
32320;BME280;19080;51.750;5.888;2023-08-06T02:56:15;100115.75;;;15.80;100.00
32320;BME280;19080;51.750;5.888;2023-08-06T02:58:51;100145.72;;;16.00;100.00
32320;BME280;19080;51.750;5.888;2023-08-06T03:01:28;100144.75;;;16.04;100.00
32320;BME280;19080;51.750;5.888;2023-08-06T03:04:01;100130.59;;;15.98;100.00
32320;BME280;19080;51.750;5.888;2023-08-06T03:06:35;100138.59;;;15.99;100.00
32320;BME280;19080;51.750;5.888;2023-08-06T03:09:02;100150.00;;;16.09;100.00
32320;BME280;19080;51.750;5.888;2023-08-06T03:11:29;100129.63;;;16.02;100.00
32320;BME280;19080;51.750;5.888;2023-08-06T03:14:03;100140.19;;;16.09;100.00
32320;BME280;19080;51.750;5.888;2023-08-06T03:16:30;100103.06;;;15.89;100.00
32320;BME280;19080;51.750;5.888;2023-08-06T03:18:59;100096.88;;;15.87;100.00
32320;BME280;19080;51.750;5.888;2023-08-06T03:21:25;100090.75;;;15.81;100.00
32320;BME280;19080;51.750;5.888;2023-08-06T03:23:52;100103.97;;;15.90;100.00
32320;BME280;19080;51.750;5.888;2023-08-06T03:26:22;100131.28;;;16.07;100.00
32320;BME280;19080;51.750;5.888;2023-08-06T03:28:49;100058.19;;;15.57;100.00
32320;BME280;19080;51.750;5.888;2023-08-06T03:31:16;100133.19;;;16.02;100.00
32320;BME280;19080;51.750;5.888;2023-08-06T03:33:44;100088.16;;;15.76;100.00
32320;BME280;19080;51.750;5.888;2023-08-06T03:36:17;100059.06;;;15.59;100.00
32320;BME280;19080;51.750;5.888;2023-08-06T03:38:44;100127.88;;;15.99;100.00
32320;BME280;19080;51.750;5.888;2023-08-06T03:41:13;100135.00;;;16.00;100.00
32320;BME280;19080;51.750;5.888;2023-08-06T03:43:40;100135.00;;;16.00;100.00
32320;BME280;19080;51.750;5.888;2023-08-06T03:46:11;100112.03;;;15.87;100.00
32320;BME280;19080;51.750;5.888;2023-08-06T03:48:38;100133.22;;;15.99;100.00
32320;BME280;19080;51.750;5.888;2023-08-06T03:51:04;100124.47;;;15.91;100.00
32320;BME280;19080;51.750;5.888;2023-08-06T03:53:31;100121.84;;;15.88;100.00
32320;BME280;19080;51.750;5.888;2023-08-06T03:55:58;100110.34;;;15.83;100.00
32320;BME280;19080;51.750;5.888;2023-08-06T03:58:27;100059.13;;;15.53;100.00
32320;BME280;19080;51.750;5.888;2023-08-06T04:01:01;100130.69;;;15.91;100.00
32320;BME280;19080;51.750;5.888;2023-08-06T04:03:34;100133.28;;;15.96;100.00
32320;BME280;19080;51.750;5.888;2023-08-06T04:06:02;100129.75;;;15.94;100.00
32320;BME280;19080;51.750;5.888;2023-08-06T04:08:29;100061.84;;;15.52;100.00
32320;BME280;19080;51.750;5.888;2023-08-06T04:10:56;100110.34;;;15.83;100.00
32320;BME280;19080;51.750;5.888;2023-08-06T04:13:22;100060.94;;;15.51;100.00
32320;BME280;19080;51.750;5.888;2023-08-06T04:15:49;100132.44;;;15.94;100.00
32320;BME280;19080;51.750;5.888;2023-08-06T04:18:16;100144.84;;;15.98;100.00
32320;BME280;19080;51.750;5.888;2023-08-06T04:20:44;100141.25;;;15.99;100.00
32320;BME280;19080;51.750;5.888;2023-08-06T04:23:12;100084.75;;;15.67;100.00
32320;BME280;19080;51.750;5.888;2023-08-06T04:25:39;100095.28;;;15.76;100.00
32320;BME280;19080;51.750;5.888;2023-08-06T04:28:06;100121.72;;;15.94;100.00
32320;BME280;19080;51.750;5.888;2023-08-06T04:30:33;100141.16;;;16.05;100.00
32320;BME280;19080;51.750;5.888;2023-08-06T04:33:01;100118.13;;;15.95;100.00
32320;BME280;19080;51.750;5.888;2023-08-06T04:35:28;100141.03;;;16.11;100.00
32320;BME280;19080;51.750;5.888;2023-08-06T04:37:55;100145.44;;;16.15;100.00
32320;BME280;19080;51.750;5.888;2023-08-06T04:40:22;100148.06;;;16.17;100.00
32320;BME280;19080;51.750;5.888;2023-08-06T04:42:49;100119.72;;;16.05;100.00
32320;BME280;19080;51.750;5.888;2023-08-06T04:45:16;100155.97;;;16.24;100.00
32320;BME280;19080;51.750;5.888;2023-08-06T04:47:43;100154.13;;;16.28;100.00
32320;BME280;19080;51.750;5.888;2023-08-06T04:50:10;100116.09;;;16.09;100.00
32320;BME280;19080;51.750;5.888;2023-08-06T04:52:37;100151.38;;;16.31;100.00
32320;BME280;19080;51.750;5.888;2023-08-06T04:55:04;100155.66;;;16.40;100.00
32320;BME280;19080;51.750;5.888;2023-08-06T04:57:32;100153.84;;;16.42;100.00
32320;BME280;19080;51.750;5.888;2023-08-06T04:59:59;100157.44;;;16.41;100.00
32320;BME280;19080;51.750;5.888;2023-08-06T05:02:25;100121.13;;;16.26;100.00
32320;BME280;19080;51.750;5.888;2023-08-06T05:04:52;100161.56;;;16.57;100.00
32320;BME280;19080;51.750;5.888;2023-08-06T05:07:19;100153.47;;;16.60;100.00
32320;BME280;19080;51.750;5.888;2023-08-06T05:09:45;100151.50;;;16.71;100.00
32320;BME280;19080;51.750;5.888;2023-08-06T05:12:12;100166.41;;;16.84;100.00
32320;BME280;19080;51.750;5.888;2023-08-06T05:14:39;100153.56;;;16.99;100.00
32320;BME280;19080;51.750;5.888;2023-08-06T05:17:05;100147.09;;;17.09;100.00
32320;BME280;19080;51.750;5.888;2023-08-06T05:19:32;100154.47;;;17.36;100.00
32320;BME280;19080;51.750;5.888;2023-08-06T05:21:58;100153.41;;;17.43;100.00
32320;BME280;19080;51.750;5.888;2023-08-06T05:24:25;100167.31;;;17.61;100.00
32320;BME280;19080;51.750;5.888;2023-08-06T05:26:52;100172.41;;;17.73;100.00
32320;BME280;19080;51.750;5.888;2023-08-06T05:29:18;100175.63;;;17.87;100.00
32320;BME280;19080;51.750;5.888;2023-08-06T05:31:45;100162.72;;;18.01;100.00
32320;BME280;19080;51.750;5.888;2023-08-06T05:34:11;100178.44;;;18.16;100.00
32320;BME280;19080;51.750;5.888;2023-08-06T05:36:38;100161.38;;;18.19;100.00
32320;BME280;19080;51.750;5.888;2023-08-06T05:39:05;100175.19;;;18.38;100.00
32320;BME280;19080;51.750;5.888;2023-08-06T05:41:31;100177.53;;;18.50;100.00
32320;BME280;19080;51.750;5.888;2023-08-06T05:43:58;100104.91;;;18.20;100.00
32320;BME280;19080;51.750;5.888;2023-08-06T05:46:27;100187.34;;;18.83;100.00
32320;BME280;19080;51.750;5.888;2023-08-06T05:48:54;100190.44;;;19.01;100.00
32320;BME280;19080;51.750;5.888;2023-08-06T05:51:20;100193.91;;;19.04;100.00
32320;BME280;19080;51.750;5.888;2023-08-06T05:53:47;100172.22;;;19.09;100.00
32320;BME280;19080;51.750;5.888;2023-08-06T05:56:15;100119.81;;;18.94;100.00
32320;BME280;19080;51.750;5.888;2023-08-06T05:58:42;100185.47;;;19.44;100.00
32320;BME280;19080;51.750;5.888;2023-08-06T06:01:09;100203.22;;;19.52;100.00
32320;BME280;19080;51.750;5.888;2023-08-06T06:03:35;100205.38;;;19.68;100.00
32320;BME280;19080;51.750;5.888;2023-08-06T06:06:02;100200.78;;;19.72;100.00
32320;BME280;19080;51.750;5.888;2023-08-06T06:08:28;100208.84;;;19.72;100.00
32320;BME280;19080;51.750;5.888;2023-08-06T06:10:55;100215.75;;;19.80;100.00
32320;BME280;19080;51.750;5.888;2023-08-06T06:13:22;100225.25;;;19.92;100.00
32320;BME280;19080;51.750;5.888;2023-08-06T06:15:49;100175.16;;;19.59;100.00
32320;BME280;19080;51.750;5.888;2023-08-06T06:18:16;100219.84;;;19.92;100.00
32320;BME280;19080;51.750;5.888;2023-08-06T06:20:42;100208.88;;;19.98;100.00
32320;BME280;19080;51.750;5.888;2023-08-06T06:23:09;100223.31;;;19.96;100.00
32320;BME280;19080;51.750;5.888;2023-08-06T06:25:35;100239.22;;;20.03;100.00
32320;BME280;19080;51.750;5.888;2023-08-06T06:28:02;100222.28;;;20.00;100.00
32320;BME280;19080;51.750;5.888;2023-08-06T06:30:29;100170.91;;;19.79;100.00
32320;BME280;19080;51.750;5.888;2023-08-06T06:32:55;100210.44;;;20.05;100.00
32320;BME280;19080;51.750;5.888;2023-08-06T06:35:22;100231.78;;;20.11;100.00
32320;BME280;19080;51.750;5.888;2023-08-06T06:37:49;100250.00;;;20.03;100.00
32320;BME280;19080;51.750;5.888;2023-08-06T06:40:15;100243.94;;;19.97;100.00
32320;BME280;19080;51.750;5.888;2023-08-06T06:42:42;100254.22;;;19.84;100.00
32320;BME280;19080;51.750;5.888;2023-08-06T06:45:09;100252.91;;;19.69;100.00
32320;BME280;19080;51.750;5.888;2023-08-06T06:47:36;100244.63;;;19.46;100.00
32320;BME280;19080;51.750;5.888;2023-08-06T06:50:03;100250.06;;;19.44;100.00
32320;BME280;19080;51.750;5.888;2023-08-06T06:52:29;100232.63;;;19.28;100.00
32320;BME280;19080;51.750;5.888;2023-08-06T06:54:56;100236.16;;;19.30;100.00
32320;BME280;19080;51.750;5.888;2023-08-06T06:57:23;100249.22;;;19.42;100.00
32320;BME280;19080;51.750;5.888;2023-08-06T06:59:49;100232.72;;;19.25;100.00
32320;BME280;19080;51.750;5.888;2023-08-06T07:02:16;100220.56;;;19.12;100.00
32320;BME280;19080;51.750;5.888;2023-08-06T07:04:43;100237.56;;;19.12;100.00
32320;BME280;19080;51.750;5.888;2023-08-06T07:07:09;100191.84;;;18.83;100.00
32320;BME280;19080;51.750;5.888;2023-08-06T07:09:36;100260.38;;;19.30;100.00
32320;BME280;19080;51.750;5.888;2023-08-06T07:12:03;100243.47;;;19.25;100.00
32320;BME280;19080;51.750;5.888;2023-08-06T07:14:30;100270.47;;;19.53;100.00
32320;BME280;19080;51.750;5.888;2023-08-06T07:16:56;100250.50;;;19.60;100.00
32320;BME280;19080;51.750;5.888;2023-08-06T07:19:23;100265.53;;;19.67;100.00
32320;BME280;19080;51.750;5.888;2023-08-06T07:21:50;100276.06;;;19.75;100.00
32320;BME280;19080;51.750;5.888;2023-08-06T07:24:17;100261.19;;;19.63;100.00
32320;BME280;19080;51.750;5.888;2023-08-06T07:26:44;100191.22;;;19.32;100.00
32320;BME280;19080;51.750;5.888;2023-08-06T07:29:11;100278.84;;;19.72;100.00
32320;BME280;19080;51.750;5.888;2023-08-06T07:31:37;100241.06;;;19.45;100.00
32320;BME280;19080;51.750;5.888;2023-08-06T07:34:04;100258.28;;;19.40;100.00
32320;BME280;19080;51.750;5.888;2023-08-06T07:36:30;100271.34;;;19.23;100.00
32320;BME280;19080;51.750;5.888;2023-08-06T07:38:58;100235.50;;;18.93;100.00
32320;BME280;19080;51.750;5.888;2023-08-06T07:41:24;100290.75;;;19.04;100.00
32320;BME280;19080;51.750;5.888;2023-08-06T07:43:51;100271.81;;;18.76;100.00
32320;BME280;19080;51.750;5.888;2023-08-06T07:46:18;100285.59;;;18.64;100.00
32320;BME280;19080;51.750;5.888;2023-08-06T07:48:44;100295.81;;;18.48;100.00
32320;BME280;19080;51.750;5.888;2023-08-06T07:51:11;100302.22;;;18.43;100.00
32320;BME280;19080;51.750;5.888;2023-08-06T07:53:38;100231.50;;;18.07;100.00
32320;BME280;19080;51.750;5.888;2023-08-06T07:56:04;100255.50;;;18.14;100.00
32320;BME280;19080;51.750;5.888;2023-08-06T07:58:31;100288.97;;;18.37;100.00
32320;BME280;19080;51.750;5.888;2023-08-06T08:00:58;100298.09;;;18.30;100.00
32320;BME280;19080;51.750;5.888;2023-08-06T08:03:26;100247.81;;;17.99;100.00
32320;BME280;19080;51.750;5.888;2023-08-06T08:05:55;100287.00;;;18.08;100.00
32320;BME280;19080;51.750;5.888;2023-08-06T08:08:24;100213.66;;;17.69;100.00
32320;BME280;19080;51.750;5.888;2023-08-06T08:10:51;100264.00;;;17.96;100.00
32320;BME280;19080;51.750;5.888;2023-08-06T08:13:18;100298.34;;;18.19;100.00
32320;BME280;19080;51.750;5.888;2023-08-06T08:15:45;100268.09;;;18.12;100.00
32320;BME280;19080;51.750;5.888;2023-08-06T08:18:11;100299.56;;;18.43;100.00
32320;BME280;19080;51.750;5.888;2023-08-06T08:20:38;100300.63;;;18.36;100.00
32320;BME280;19080;51.750;5.888;2023-08-06T08:23:05;100290.66;;;18.41;100.00
32320;BME280;19080;51.750;5.888;2023-08-06T08:25:31;100310.28;;;18.43;100.00
32320;BME280;19080;51.750;5.888;2023-08-06T08:27:58;100303.53;;;18.27;100.00
32320;BME280;19080;51.750;5.888;2023-08-06T08:30:25;100319.44;;;18.36;100.00
32320;BME280;19080;51.750;5.888;2023-08-06T08:32:52;100232.13;;;17.82;100.00
32320;BME280;19080;51.750;5.888;2023-08-06T08:35:19;100308.03;;;18.26;100.00
32320;BME280;19080;51.750;5.888;2023-08-06T08:37:46;100304.53;;;18.23;100.00
32320;BME280;19080;51.750;5.888;2023-08-06T08:40:14;100309.06;;;18.20;100.00
32320;BME280;19080;51.750;5.888;2023-08-06T08:42:41;100316.22;;;18.21;100.00
32320;BME280;19080;51.750;5.888;2023-08-06T08:45:13;100317.25;;;18.16;100.00
32320;BME280;19080;51.750;5.888;2023-08-06T08:47:42;100312.69;;;18.19;100.00
32320;BME280;19080;51.750;5.888;2023-08-06T08:50:10;100318.19;;;18.13;100.00
32320;BME280;19080;51.750;5.888;2023-08-06T08:52:42;100310.69;;;17.91;100.00
32320;BME280;19080;51.750;5.888;2023-08-06T08:55:12;100327.38;;;18.03;100.00
32320;BME280;19080;51.750;5.888;2023-08-06T08:57:40;100326.44;;;18.06;100.00
32320;BME280;19080;51.750;5.888;2023-08-06T09:00:07;100324.72;;;18.03;100.00
32320;BME280;19080;51.750;5.888;2023-08-06T09:02:34;100256.69;;;17.64;100.00
32320;BME280;19080;51.750;5.888;2023-08-06T09:05:01;100313.19;;;17.98;100.00
32320;BME280;19080;51.750;5.888;2023-08-06T09:07:35;100335.09;;;17.80;100.00
32320;BME280;19080;51.750;5.888;2023-08-06T09:10:06;100322.81;;;17.68;100.00
32320;BME280;19080;51.750;5.888;2023-08-06T09:12:37;100334.78;;;17.52;100.00
32320;BME280;19080;51.750;5.888;2023-08-06T09:15:04;100338.22;;;17.17;100.00
32320;BME280;19080;51.750;5.888;2023-08-06T09:17:31;100349.28;;;16.99;100.00
32320;BME280;19080;51.750;5.888;2023-08-06T09:19:57;100342.75;;;16.64;100.00
32320;BME280;19080;51.750;5.888;2023-08-06T09:22:24;100261.69;;;16.01;100.00
32320;BME280;19080;51.750;5.888;2023-08-06T09:24:51;100319.41;;;16.18;100.00
32320;BME280;19080;51.750;5.888;2023-08-06T09:27:17;100365.13;;;16.06;100.00
32320;BME280;19080;51.750;5.888;2023-08-06T09:29:45;100359.34;;;15.74;100.00
32320;BME280;19080;51.750;5.888;2023-08-06T09:32:12;100347.97;;;15.59;100.00
32320;BME280;19080;51.750;5.888;2023-08-06T09:34:41;100373.84;;;15.57;100.00
32320;BME280;19080;51.750;5.888;2023-08-06T09:37:09;100359.78;;;15.40;100.00
32320;BME280;19080;51.750;5.888;2023-08-06T09:39:39;100381.09;;;15.46;100.00
32320;BME280;19080;51.750;5.888;2023-08-06T09:42:07;100341.38;;;15.13;100.00
32320;BME280;19080;51.750;5.888;2023-08-06T09:44:34;100391.09;;;15.29;100.00
32320;BME280;19080;51.750;5.888;2023-08-06T09:47:03;100389.28;;;15.33;100.00
32320;BME280;19080;51.750;5.888;2023-08-06T09:52:00;100399.88;;;15.40;100.00
32320;BME280;19080;51.750;5.888;2023-08-06T09:54:27;100389.16;;;15.43;100.00
32320;BME280;19080;51.750;5.888;2023-08-06T09:56:56;100378.69;;;15.22;100.00
32320;BME280;19080;51.750;5.888;2023-08-06T09:59:23;100379.59;;;15.22;100.00
32320;BME280;19080;51.750;5.888;2023-08-06T10:01:51;100366.44;;;15.03;100.00
32320;BME280;19080;51.750;5.888;2023-08-06T10:04:19;100398.34;;;15.18;100.00
32320;BME280;19080;51.750;5.888;2023-08-06T10:06:52;100410.78;;;15.23;100.00
32320;BME280;19080;51.750;5.888;2023-08-06T10:09:19;100397.47;;;15.16;100.00
32320;BME280;19080;51.750;5.888;2023-08-06T10:11:51;100406.25;;;15.28;100.00
32320;BME280;19080;51.750;5.888;2023-08-06T10:14:24;100396.44;;;15.29;100.00
32320;BME280;19080;51.750;5.888;2023-08-06T10:16:52;100410.50;;;15.48;100.00
32320;BME280;19080;51.750;5.888;2023-08-06T10:19:20;100421.13;;;15.52;100.00
32320;BME280;19080;51.750;5.888;2023-08-06T10:22:08;100421.19;;;15.49;100.00
32320;BME280;19080;51.750;5.888;2023-08-06T10:24:50;100420.25;;;15.52;100.00
32320;BME280;19080;51.750;5.888;2023-08-06T10:27:32;100422.75;;;15.66;100.00
32320;BME280;19080;51.750;5.888;2023-08-06T10:30:31;100424.44;;;15.76;100.00
32320;BME280;19080;51.750;5.888;2023-08-06T10:33:00;100350.88;;;15.38;100.00
32320;BME280;19080;51.750;5.888;2023-08-06T10:38:18;100427.94;;;15.81;100.00
32320;BME280;19080;51.750;5.888;2023-08-06T10:43:26;100346.47;;;15.36;100.00
32320;BME280;19080;51.750;5.888;2023-08-06T10:45:53;100413.78;;;15.70;100.00
32320;BME280;19080;51.750;5.888;2023-08-06T10:48:39;100441.13;;;15.94;100.00
32320;BME280;19080;51.750;5.888;2023-08-06T10:51:10;100406.53;;;15.79;100.00
32320;BME280;19080;51.750;5.888;2023-08-06T10:53:41;100420.69;;;15.89;100.00
32320;BME280;19080;51.750;5.888;2023-08-06T10:56:16;100432.88;;;16.11;100.00
32320;BME280;19080;51.750;5.888;2023-08-06T10:58:45;100435.53;;;16.13;100.00
32320;BME280;19080;51.750;5.888;2023-08-06T11:01:12;100422.09;;;16.16;100.00
32320;BME280;19080;51.750;5.888;2023-08-06T11:03:42;100430.88;;;16.25;100.00
32320;BME280;19080;51.750;5.888;2023-08-06T11:06:09;100443.25;;;16.34;100.00
32320;BME280;19080;51.750;5.888;2023-08-06T11:08:40;100449.31;;;16.47;100.00
32320;BME280;19080;51.750;5.888;2023-08-06T11:11:15;100454.44;;;16.62;100.00
32320;BME280;19080;51.750;5.888;2023-08-06T11:13:44;100453.31;;;16.78;100.00
32320;BME280;19080;51.750;5.888;2023-08-06T11:16:17;100393.75;;;16.58;100.00
32320;BME280;19080;51.750;5.888;2023-08-06T11:18:45;100449.34;;;17.02;100.00
32320;BME280;19080;51.750;5.888;2023-08-06T11:21:13;100450.41;;;16.92;100.00
32320;BME280;19080;51.750;5.888;2023-08-06T11:23:42;100437.44;;;16.66;100.00
32320;BME280;19080;51.750;5.888;2023-08-06T11:26:09;100469.59;;;16.66;100.00
32320;BME280;19080;51.750;5.888;2023-08-06T11:28:36;100464.56;;;16.42;100.00
32320;BME280;19080;51.750;5.888;2023-08-06T11:31:02;100443.44;;;16.22;100.00
32320;BME280;19080;51.750;5.888;2023-08-06T11:33:30;100460.44;;;16.18;100.00
32320;BME280;19080;51.750;5.888;2023-08-06T11:35:59;100411.84;;;15.82;100.00
32320;BME280;19080;51.750;5.888;2023-08-06T11:38:28;100450.78;;;16.06;100.00
32320;BME280;19080;51.750;5.888;2023-08-06T11:40:55;100456.16;;;16.06;100.00
32320;BME280;19080;51.750;5.888;2023-08-06T11:43:22;100458.06;;;15.97;100.00
32320;BME280;19080;51.750;5.888;2023-08-06T11:45:50;100451.19;;;15.76;100.00
32320;BME280;19080;51.750;5.888;2023-08-06T11:48:17;100486.59;;;15.99;100.00
32320;BME280;19080;51.750;5.888;2023-08-06T11:50:45;100449.50;;;15.69;100.00
32320;BME280;19080;51.750;5.888;2023-08-06T11:53:13;100456.59;;;15.70;100.00
32320;BME280;19080;51.750;5.888;2023-08-06T11:55:42;100502.81;;;15.84;100.00
32320;BME280;19080;51.750;5.888;2023-08-06T11:58:10;100486.19;;;15.59;100.00
32320;BME280;19080;51.750;5.888;2023-08-06T12:00:38;100501.22;;;15.68;100.00
32320;BME280;19080;51.750;5.888;2023-08-06T12:03:05;100500.47;;;15.55;100.00
32320;BME280;19080;51.750;5.888;2023-08-06T12:05:32;100488.25;;;15.31;100.00
32320;BME280;19080;51.750;5.888;2023-08-06T12:08:02;100428.94;;;14.89;100.00
32320;BME280;19080;51.750;5.888;2023-08-06T12:10:31;100491.00;;;15.20;100.00
32320;BME280;19080;51.750;5.888;2023-08-06T12:12:58;100483.97;;;15.12;100.00
32320;BME280;19080;51.750;5.888;2023-08-06T12:15:24;100506.16;;;15.21;100.00
32320;BME280;19080;51.750;5.888;2023-08-06T12:17:51;100525.69;;;15.28;100.00
32320;BME280;19080;51.750;5.888;2023-08-06T12:20:18;100505.38;;;15.09;100.00
32320;BME280;19080;51.750;5.888;2023-08-06T12:22:45;100523.19;;;15.10;100.00
32320;BME280;19080;51.750;5.888;2023-08-06T12:25:12;100514.28;;;15.08;100.00
32320;BME280;19080;51.750;5.888;2023-08-06T12:27:41;100440.72;;;14.62;100.00
32320;BME280;19080;51.750;5.888;2023-08-06T12:30:09;100484.06;;;15.00;100.00
32320;BME280;19080;51.750;5.888;2023-08-06T12:32:37;100510.63;;;15.21;100.00
32320;BME280;19080;51.750;5.888;2023-08-06T12:35:05;100537.19;;;15.39;100.00
32320;BME280;19080;51.750;5.888;2023-08-06T12:37:33;100545.09;;;15.51;100.00
32320;BME280;19080;51.750;5.888;2023-08-06T12:40:00;100537.03;;;15.57;100.00
32320;BME280;19080;51.750;5.888;2023-08-06T12:42:47;100538.81;;;15.58;100.00
32320;BME280;19080;51.750;5.888;2023-08-06T12:45:15;100531.56;;;15.67;100.00
32320;BME280;19080;51.750;5.888;2023-08-06T12:47:42;100555.53;;;15.77;100.00
32320;BME280;19080;51.750;5.888;2023-08-06T12:50:09;100544.03;;;15.69;100.00
32320;BME280;19080;51.750;5.888;2023-08-06T12:52:35;100482.88;;;15.33;100.00
32320;BME280;19080;51.750;5.888;2023-08-06T12:55:02;100531.56;;;15.65;100.00